• Join FlightAware (Why Join?)
  • Login
  • US Flag 
08:24AM EDT


 

Airport Tracker/Info


-or-


 

Live Flight TrackerFlight Track Log ✈ SKW2604 ✈ 06-May-2013 ✈ KSBA - KLAX

Flight Track Log - Related Links

Times and Time Zones

All times are in EDT time to prevent confusion due to time zone crossing. See the SKW2604 flight status page for this flight to view local times or setup timezone preferences in your user account.

Time Position Orientation Groundspeed Altitude Reporting Facility
EDT Latitude Longitude Course Direction KTS MPH feet Rate Location/Type
12:18PM 34.4278 -119.8297 116° Southeast 161 185 500  Level Los Angeles Center
12:19PM 34.4183 -119.8067 116° Southeast 171 197 1,500 2,640 Climbing Los Angeles Center
12:20PM 34.3892 -119.7711 135° Southeast 201 231 3,900 2,940 Climbing Los Angeles Center
12:20PM 34.3775 -119.7494 123° Southeast 208 239 4,500 2,580 Climbing Los Angeles Center
12:21PM 34.3575 -119.7119 123° Southeast 259 298 6,000 1,380 Climbing Los Angeles Center
12:22PM 34.3147 -119.6239 120° Southeast 263 303 7,000 360 Climbing Los Angeles Center
12:23PM 34.2636 -119.5686 138° Southeast 255 293 7,000  Level Los Angeles Center
12:24PM 34.2122 -119.5006 132° Southeast 259 298 7,000  Level Los Angeles Center
12:24PM 34.1900 -119.4839 148° Southeast 260 299 7,000  Level Los Angeles Center
12:25PM 34.1592 -119.4369 128° Southeast 260 299 7,000  Level Los Angeles Center
12:25PM 34.1425 -119.4183 137° Southeast 262 302 7,000  Level Los Angeles Center
12:26PM 34.0908 -119.3544 134° Southeast 265 305 7,000  Level Los Angeles Center
12:27PM 34.0550 -119.3067 132° Southeast 270 311 7,000  Level Los Angeles Center
12:27PM 34.0453 -119.2864 120° Southeast 261 300 7,000  Level Los Angeles Center
12:28PM 33.9886 -119.2228 137° Southeast 280 322 7,000 -360 Level Los Angeles Center
12:30PM 33.9812 -119.0854 94° East  Level Estimated
12:30PM 33.9333 -119.0833 94° East 270 311 6,100  Level Southern California TRACON
12:30PM 33.9294 -119.0489 98° East 268 308 6,000 -120 Descending Los Angeles Center
12:31PM 33.9261 -118.9714 93° East 228 262 6,000  Level Los Angeles Center
12:32PM 33.9217 -118.8961 94° East 224 258 6,000  Level Los Angeles Center
12:34PM 33.9167 -118.7667 93° East 230 265 6,000 -180 Level Southern California TRACON
12:34PM 33.9175 -118.7375 88° East 223 257 5,700 -1,320 Descending Los Angeles Center
12:35PM 33.9253 -118.6639 83° East 207 238 4,100 -1,260 Descending Los Angeles Center
12:36PM 33.9317 -118.5994 83° East 196 226 3,200 -1,020 Descending Los Angeles Center
12:39PM 33.9500 -118.4500 82° East 147 169 600 -1,080 Descending Southern California TRACON
12:41PM 33.9425 -118.4081 90° East  Level Estimated
12:48PM 33.9425 -118.4081 90° East  Level Estimated
12:49PM 33.9425 -118.4081 90° East  Level Estimated